Time;durP1;ratioP1;P1;durP2;ratioP2;P2;SDS_P1;SDS_P2;PMS_P1;PMS_P2;Temp;Humidity;BMP_temperature;BMP_pressure;BME280_temperature;BME280_humidity;BME280_pressure;Samples;Min_cycle;Max_cycle;Signal;HPM_P1;HPM_P2
2022/08/18 00:02:24;;;;;;;5.68;4.18;;;22.40;96.40;;;;;;5051838;28;20232;-61
2022/08/18 00:04:50;;;;;;;6.78;3.85;;;22.30;96.40;;;;;;5051921;28;20216;-61
2022/08/18 00:07:25;;;;;;;5.43;3.85;;;22.40;96.40;;;;;;5032806;28;20217;-61
2022/08/18 00:09:51;;;;;;;4.45;4.05;;;22.40;96.40;;;;;;5051518;28;20184;-61
2022/08/18 00:12:28;;;;;;;4.53;4.13;;;22.30;96.50;;;;;;5052175;28;20185;-61
2022/08/18 00:14:55;;;;;;;4.10;3.70;;;22.30;96.60;;;;;;5035488;28;20669;-61
2022/08/18 00:17:21;;;;;;;5.40;4.15;;;22.30;96.70;;;;;;5036067;28;20185;-61
2022/08/18 00:19:47;;;;;;;5.75;4.43;;;22.30;96.70;;;;;;5051852;28;20248;-61
2022/08/18 00:22:16;;;;;;;4.80;4.15;;;22.20;96.80;;;;;;5051490;28;20185;-61
2022/08/18 00:24:47;;;;;;;5.07;4.18;;;22.30;96.90;;;;;;5050116;28;20699;-61
2022/08/18 00:27:12;;;;;;;4.88;4.00;;;22.30;97.10;;;;;;5051331;28;20209;-62
2022/08/18 00:29:38;;;;;;;5.68;4.20;;;22.30;97.10;;;;;;5051713;28;20184;-62
2022/08/18 00:32:14;;;;;;;4.70;3.95;;;22.40;97.20;;;;;;5051525;28;20188;-61
2022/08/18 00:34:40;;;;;;;4.18;3.78;;;22.40;97.10;;;;;;5051664;28;20541;-61
2022/08/18 00:37:06;;;;;;;5.68;3.72;;;22.40;97.10;;;;;;5051458;28;20629;-62
2022/08/18 00:39:33;;;;;;;5.95;3.72;;;22.40;97.10;;;;;;5051479;28;20185;-61
2022/08/18 00:41:59;;;;;;;5.47;3.85;;;22.40;97.20;;;;;;5050820;28;20178;-61
2022/08/18 00:44:25;;;;;;;7.05;4.20;;;22.40;97.20;;;;;;5051384;28;20181;-62
2022/08/18 00:46:50;;;;;;;5.40;4.00;;;22.30;97.30;;;;;;5051608;28;20201;-62
2022/08/18 00:49:17;;;;;;;5.47;4.22;;;22.30;97.50;;;;;;5050598;28;20266;-61
2022/08/18 00:51:48;;;;;;;5.15;3.92;;;22.30;97.60;;;;;;5051016;28;20699;-62
2022/08/18 00:54:22;;;;;;;6.50;4.03;;;22.30;97.60;;;;;;5051275;28;20238;-62
2022/08/18 00:56:51;;;;;;;6.03;4.07;;;22.30;97.80;;;;;;5050979;28;20199;-61
2022/08/18 00:59:41;;;;;;;3.78;3.42;;;22.30;97.90;;;;;;5050971;28;20260;-61
2022/08/18 01:02:25;;;;;;;5.13;3.90;;;22.20;97.80;;;;;;5050586;28;20358;-61
2022/08/18 01:04:59;;;;;;;4.32;3.92;;;22.10;97.90;;;;;;5050824;28;20629;-61
2022/08/18 01:07:28;;;;;;;4.55;3.90;;;22.20;98.20;;;;;;5051221;28;20201;-61
2022/08/18 01:09:59;;;;;;;4.90;4.03;;;22.10;98.30;;;;;;5051137;28;20177;-61
2022/08/18 01:12:26;;;;;;;6.15;3.90;;;22.10;98.30;;;;;;5050603;28;20177;-61
2022/08/18 01:14:53;;;;;;;4.50;3.80;;;22.00;98.40;;;;;;5051018;28;20197;-61
2022/08/18 01:23:03;;;;;;;4.60;3.95;;;21.80;98.80;;;;;;5050449;28;20212;-61
2022/08/18 01:28:18;;;;;;;5.35;3.80;;;21.70;99.10;;;;;;5042859;28;20224;-61
2022/08/18 01:30:48;;;;;;;5.25;3.90;;;21.70;99.20;;;;;;5050938;28;20276;-61
2022/08/18 01:33:15;;;;;;;4.10;3.60;;;21.70;99.30;;;;;;5050943;28;20555;-61
2022/08/18 01:35:48;;;;;;;4.15;3.75;;;21.70;99.50;;;;;;5051156;28;20533;-61
2022/08/18 01:38:15;;;;;;;5.22;4.00;;;21.70;99.50;;;;;;5042926;28;20189;-61
2022/08/18 01:40:41;;;;;;;6.18;3.80;;;21.60;99.40;;;;;;5050623;28;20239;-61
2022/08/18 01:43:07;;;;;;;5.15;3.63;;;21.60;99.40;;;;;;5050538;28;20832;-61
2022/08/18 01:45:33;;;;;;;4.65;4.20;;;21.60;99.40;;;;;;5050877;28;20197;-61
2022/08/18 01:47:59;;;;;;;4.70;3.72;;;21.60;99.50;;;;;;5050500;28;20241;-61
2022/08/18 01:50:25;;;;;;;5.15;3.60;;;21.50;99.40;;;;;;5050203;28;20544;-61
2022/08/18 01:52:52;;;;;;;5.03;3.70;;;21.50;99.60;;;;;;5049945;28;20625;-61
2022/08/18 01:55:18;;;;;;;4.85;4.00;;;21.40;99.60;;;;;;5050482;28;20203;-61
2022/08/18 01:57:44;;;;;;;5.82;4.07;;;21.40;99.80;;;;;;5050896;28;20272;-61
2022/08/18 02:00:13;;;;;;;5.38;4.00;;;21.40;99.80;;;;;;5050354;28;20284;-61
2022/08/18 02:02:39;;;;;;;4.65;4.15;;;21.40;99.90;;;;;;5050337;28;20189;-61
2022/08/18 02:05:11;;;;;;;5.03;3.70;;;21.40;99.90;;;;;;5050764;28;20185;-61
2022/08/18 02:07:37;;;;;;;3.92;3.55;;;21.40;99.80;;;;;;5050349;28;20308;-61
2022/08/18 02:10:06;;;;;;;3.92;3.53;;;21.40;99.90;;;;;;5050236;28;20264;-61
2022/08/18 02:12:32;;;;;;;4.50;3.40;;;21.30;99.80;;;;;;5052287;28;20178;-61
2022/08/18 02:14:57;;;;;;;4.35;3.85;;;21.30;99.90;;;;;;5053980;28;20181;-61
2022/08/18 02:17:23;;;;;;;3.90;3.47;;;21.20;99.90;;;;;;5054006;28;20256;-61
2022/08/18 02:19:48;;;;;;;5.00;4.03;;;21.20;99.90;;;;;;5054139;28;20181;-61
2022/08/18 02:22:17;;;;;;;4.85;3.63;;;21.20;99.90;;;;;;5053778;28;20185;-61
2022/08/18 02:24:44;;;;;;;4.30;3.80;;;21.20;99.90;;;;;;5053774;28;20586;-61
2022/08/18 02:27:11;;;;;;;4.80;3.70;;;21.10;99.90;;;;;;5053464;28;20229;-61
2022/08/18 02:29:37;;;;;;;4.60;3.80;;;21.10;99.90;;;;;;5053868;28;20181;-61
2022/08/18 02:32:04;;;;;;;4.22;3.65;;;21.10;99.90;;;;;;5053779;28;20188;-61
2022/08/18 02:34:29;;;;;;;4.75;3.72;;;21.10;99.90;;;;;;5053824;28;20173;-61
2022/08/18 02:36:55;;;;;;;4.40;3.97;;;21.00;99.90;;;;;;5053536;28;20634;-61
2022/08/18 02:39:21;;;;;;;4.70;3.85;;;21.00;99.90;;;;;;5053728;28;20227;-61
2022/08/18 02:41:46;;;;;;;4.10;3.45;;;20.90;99.90;;;;;;5054065;28;20248;-61
2022/08/18 02:44:12;;;;;;;4.47;4.07;;;20.90;99.90;;;;;;5053386;28;20251;-61
2022/08/18 02:46:37;;;;;;;5.50;4.40;;;20.80;99.90;;;;;;5052997;28;20205;-61
2022/08/18 02:49:04;;;;;;;3.75;3.38;;;20.80;99.90;;;;;;5040574;28;20188;-61
2022/08/18 02:51:30;;;;;;;6.03;3.95;;;20.70;99.90;;;;;;5053162;28;20177;-61
2022/08/18 02:53:59;;;;;;;4.95;4.03;;;20.60;99.90;;;;;;5053067;28;20181;-61
2022/08/18 02:56:28;;;;;;;5.13;4.03;;;20.70;99.90;;;;;;5052707;28;20544;-61
2022/08/18 02:58:55;;;;;;;3.72;3.42;;;20.70;99.90;;;;;;5053695;28;20196;-61
2022/08/18 03:01:24;;;;;;;5.75;3.90;;;20.70;99.90;;;;;;5052889;28;20224;-61
2022/08/18 03:03:51;;;;;;;4.90;4.30;;;20.60;99.90;;;;;;5053285;28;20177;-61
2022/08/18 03:06:18;;;;;;;5.40;3.70;;;20.60;99.90;;;;;;5053273;28;20560;-61
2022/08/18 03:08:47;;;;;;;4.35;3.67;;;20.50;99.90;;;;;;5053112;28;20190;-61
2022/08/18 03:11:15;;;;;;;4.75;4.00;;;20.40;99.90;;;;;;5052762;28;20182;-61
2022/08/18 03:13:40;;;;;;;4.47;3.88;;;20.40;99.90;;;;;;5053117;28;20633;-61
2022/08/18 03:16:06;;;;;;;6.10;3.80;;;20.30;99.90;;;;;;5052586;28;20193;-61
2022/08/18 03:18:32;;;;;;;5.05;4.55;;;20.20;99.90;;;;;;5052916;28;20210;-61
2022/08/18 03:21:06;;;;;;;6.28;4.72;;;20.30;99.90;;;;;;5052825;28;20178;-61
2022/08/18 03:23:32;;;;;;;5.75;4.63;;;20.30;99.90;;;;;;5052561;28;20179;-61
2022/08/18 03:25:58;;;;;;;5.05;3.80;;;20.30;99.90;;;;;;5052592;28;20177;-61
2022/08/18 03:28:23;;;;;;;4.75;3.83;;;20.20;99.90;;;;;;5052680;28;20209;-61
2022/08/18 03:30:49;;;;;;;5.28;3.75;;;20.20;99.90;;;;;;5052099;28;20177;-61
2022/08/18 03:33:14;;;;;;;4.68;4.28;;;20.10;99.90;;;;;;5052339;28;20177;-61
2022/08/18 03:35:40;;;;;;;4.25;3.72;;;20.10;99.90;;;;;;5052687;28;20173;-61
2022/08/18 03:38:06;;;;;;;4.30;3.58;;;20.10;99.90;;;;;;5052662;28;20564;-61
2022/08/18 03:40:32;;;;;;;4.38;3.90;;;20.10;99.90;;;;;;5052586;28;20182;-61
2022/08/18 03:43:00;;;;;;;5.20;4.10;;;20.20;99.90;;;;;;5052389;28;20589;-61
2022/08/18 03:45:27;;;;;;;4.22;3.50;;;20.20;99.90;;;;;;5052436;28;20263;-61
2022/08/18 03:47:53;;;;;;;4.47;3.78;;;20.20;99.90;;;;;;5044381;28;20359;-61
2022/08/18 03:50:19;;;;;;;3.75;3.35;;;20.30;99.90;;;;;;5052517;28;20185;-61
2022/08/18 03:52:48;;;;;;;3.47;3.13;;;20.30;99.90;;;;;;5052048;28;20270;-61
2022/08/18 03:55:17;;;;;;;4.50;3.65;;;20.30;99.90;;;;;;5051659;28;20169;-61
2022/08/18 03:57:44;;;;;;;4.72;3.80;;;20.30;99.90;;;;;;5052079;28;20268;-61
2022/08/18 04:00:11;;;;;;;4.68;3.92;;;20.30;99.90;;;;;;5051927;28;20264;-61
2022/08/18 04:02:38;;;;;;;5.40;4.05;;;20.40;99.90;;;;;;5052334;28;20703;-61
2022/08/18 04:05:05;;;;;;;3.78;3.40;;;20.40;99.90;;;;;;5052294;28;20692;-60
2022/08/18 04:07:30;;;;;;;4.40;4.00;;;20.40;99.90;;;;;;5051962;28;20217;-61
2022/08/18 04:09:56;;;;;;;4.70;4.00;;;20.40;99.90;;;;;;5052243;28;20184;-61
2022/08/18 04:12:22;;;;;;;4.65;3.83;;;20.50;99.90;;;;;;5050083;28;20680;-60
2022/08/18 04:14:48;;;;;;;4.63;4.10;;;20.60;99.90;;;;;;5051774;28;20268;-61
2022/08/18 04:17:15;;;;;;;5.35;4.07;;;20.70;99.90;;;;;;5052262;28;20189;-59
2022/08/18 04:19:41;;;;;;;4.93;4.05;;;20.70;99.90;;;;;;5051236;28;20268;-63
2022/08/18 04:22:07;;;;;;;5.45;4.10;;;20.70;99.90;;;;;;5051038;28;20596;-59
2022/08/18 04:24:33;;;;;;;4.38;3.75;;;20.70;99.90;;;;;;5051978;28;20201;-61
2022/08/18 04:27:01;;;;;;;5.05;4.03;;;20.70;99.90;;;;;;5051283;28;20664;-62
2022/08/18 04:29:27;;;;;;;4.80;3.72;;;20.70;99.90;;;;;;5051795;28;20189;-60
2022/08/18 04:31:53;;;;;;;7.05;3.80;;;20.70;99.90;;;;;;5052190;28;20253;-60
2022/08/18 04:34:21;;;;;;;22.30;15.75;;;20.70;99.90;;;;;;5051112;28;20185;-60
2022/08/18 04:36:47;;;;;;;54.58;37.80;;;20.70;99.90;;;;;;5051979;28;20644;-61
2022/08/18 04:39:13;;;;;;;20.67;15.02;;;20.70;99.90;;;;;;5051571;28;20189;-59
2022/08/18 04:41:42;;;;;;;14.50;10.10;;;20.70;99.90;;;;;;5051989;28;20170;-60
2022/08/18 04:44:08;;;;;;;8.90;6.90;;;20.70;99.90;;;;;;5051583;28;20217;-64
2022/08/18 04:46:38;;;;;;;8.35;6.50;;;20.70;99.90;;;;;;5051082;28;20581;-60
2022/08/18 04:49:04;;;;;;;8.95;7.25;;;20.70;99.90;;;;;;5051008;28;20193;-61
2022/08/18 04:51:30;;;;;;;129.07;78.18;;;20.80;99.90;;;;;;5051412;28;20264;-64
2022/08/18 04:53:59;;;;;;;41.65;28.95;;;20.80;99.90;;;;;;5049427;28;20185;-64
2022/08/18 04:56:32;;;;;;;23.05;14.80;;;20.90;99.90;;;;;;5050135;28;20188;-63
2022/08/18 04:59:07;;;;;;;4.43;4.03;;;20.90;99.90;;;;;;5050895;28;20193;-64
2022/08/18 05:01:44;;;;;;;4.30;3.20;;;20.90;99.90;;;;;;5051282;28;20223;-64
2022/08/18 05:04:12;;;;;;;3.67;3.38;;;20.80;99.90;;;;;;5051617;28;20173;-64
2022/08/18 05:06:38;;;;;;;4.18;3.78;;;20.60;99.90;;;;;;5051558;28;20232;-64
2022/08/18 05:09:07;;;;;;;7.53;5.40;;;20.50;99.90;;;;;;5051594;28;20189;-64
2022/08/18 05:11:34;;;;;;;5.82;4.10;;;20.40;99.90;;;;;;5051765;28;20536;-64
2022/08/18 05:14:02;;;;;;;4.00;3.60;;;20.40;99.90;;;;;;5051287;28;20205;-64
2022/08/18 05:16:35;;;;;;;4.53;3.60;;;20.30;99.90;;;;;;5050283;28;20174;-65
2022/08/18 05:19:10;;;;;;;4.10;3.58;;;20.20;99.90;;;;;;5049828;28;20539;-64
2022/08/18 05:21:40;;;;;;;4.72;3.80;;;20.10;99.90;;;;;;5051542;28;20192;-64
2022/08/18 05:24:07;;;;;;;5.38;4.30;;;20.10;99.90;;;;;;5051629;28;20195;-64
2022/08/18 05:26:32;;;;;;;5.93;3.95;;;20.00;99.90;;;;;;5051238;28;20196;-64
2022/08/18 05:28:58;;;;;;;4.18;3.78;;;20.00;99.90;;;;;;5051470;28;20185;-64
2022/08/18 05:31:26;;;;;;;4.32;3.92;;;20.00;99.90;;;;;;5051214;28;20193;-64
2022/08/18 05:33:54;;;;;;;4.50;3.70;;;20.00;99.90;;;;;;5051193;28;20177;-64
2022/08/18 05:36:33;;;;;;;4.20;3.80;;;20.00;99.90;;;;;;5051492;28;20247;-64
2022/08/18 05:39:28;;;;;;;5.18;4.15;;;20.00;99.90;;;;;;5051128;28;20205;-64
2022/08/18 05:42:05;;;;;;;4.85;3.78;;;20.00;99.90;;;;;;5051177;28;20260;-64
2022/08/18 05:44:40;;;;;;;4.85;4.00;;;20.00;99.90;;;;;;5051130;28;20165;-64
2022/08/18 05:47:13;;;;;;;6.13;4.18;;;20.00;99.90;;;;;;5035998;28;20205;-64
2022/08/18 05:49:40;;;;;;;4.50;3.97;;;20.10;99.90;;;;;;5054958;28;20178;-64
2022/08/18 05:52:13;;;;;;;7.45;4.43;;;20.10;99.90;;;;;;5054700;28;20200;-64
2022/08/18 05:57:51;;;;;;;5.70;4.10;;;20.30;99.90;;;;;;5055144;28;20181;-64
2022/08/18 06:00:19;;;;;;;6.18;4.70;;;20.40;99.90;;;;;;5037174;28;20205;-64
2022/08/18 06:02:54;;;;;;;6.35;4.60;;;20.40;99.90;;;;;;5055134;28;20256;-64
2022/08/18 06:05:31;;;;;;;6.03;4.63;;;20.40;99.90;;;;;;5035198;28;20212;-64
2022/08/18 06:08:01;;;;;;;4.57;4.18;;;20.30;99.90;;;;;;5053906;28;20267;-64
2022/08/18 06:10:27;;;;;;;5.05;4.38;;;20.20;99.90;;;;;;5054538;28;20640;-64
2022/08/18 06:13:02;;;;;;;6.15;4.75;;;20.20;99.90;;;;;;5054849;28;20189;-64
2022/08/18 06:15:51;;;;;;;5.85;4.75;;;20.20;99.90;;;;;;5054533;28;20170;-64
2022/08/18 06:18:48;;;;;;;5.20;4.70;;;20.20;99.90;;;;;;5054791;28;20180;-64
2022/08/18 06:21:27;;;;;;;7.65;5.90;;;20.30;99.90;;;;;;5054306;28;20247;-64
2022/08/18 06:24:11;;;;;;;5.72;4.75;;;20.40;99.90;;;;;;5054631;28;20209;-64
2022/08/18 06:27:00;;;;;;;6.60;4.65;;;20.40;99.90;;;;;;5053902;28;20177;-64
2022/08/18 06:29:54;;;;;;;6.35;5.07;;;20.40;99.90;;;;;;5054320;28;20181;-64
2022/08/18 06:32:58;;;;;;;6.20;4.57;;;20.40;99.90;;;;;;5054303;28;20256;-64
2022/08/18 06:35:47;;;;;;;5.88;4.57;;;20.40;99.90;;;;;;5054017;28;20180;-64
2022/08/18 06:39:15;;;;;;;6.15;4.28;;;20.40;99.90;;;;;;5054219;28;20178;-64
2022/08/18 06:41:44;;;;;;;6.78;4.68;;;20.50;99.90;;;;;;5032217;28;20456;-64
2022/08/18 06:44:31;;;;;;;4.57;4.18;;;20.50;99.90;;;;;;5032025;28;20174;-64
2022/08/18 06:47:15;;;;;;;5.90;4.28;;;20.50;99.90;;;;;;5051364;28;20213;-64
2022/08/18 06:49:47;;;;;;;6.65;4.60;;;20.50;99.90;;;;;;5054009;28;20227;-64
2022/08/18 06:52:28;;;;;;;5.10;4.60;;;20.40;99.90;;;;;;5053536;28;20169;-64
2022/08/18 06:54:57;;;;;;;5.50;4.65;;;20.40;99.90;;;;;;5053958;28;20177;-64
2022/08/18 06:57:30;;;;;;;5.93;4.45;;;20.50;99.90;;;;;;5052790;28;20252;-64
2022/08/18 06:59:59;;;;;;;5.68;4.50;;;20.50;99.90;;;;;;5053814;28;20184;-64
2022/08/18 07:02:31;;;;;;;6.22;4.18;;;20.50;99.90;;;;;;5053059;28;20186;-64
2022/08/18 07:05:04;;;;;;;4.80;4.10;;;20.60;99.90;;;;;;5053811;28;20575;-64
2022/08/18 07:07:38;;;;;;;5.25;4.20;;;20.60;99.90;;;;;;5053279;28;20288;-63
2022/08/18 07:10:07;;;;;;;4.57;4.05;;;20.80;99.90;;;;;;5050177;28;20196;-64
2022/08/18 07:12:33;;;;;;;5.25;4.13;;;20.90;99.90;;;;;;5053434;28;20181;-64
2022/08/18 07:15:01;;;;;;;4.70;4.30;;;21.00;99.90;;;;;;5053678;28;20647;-64
2022/08/18 07:17:34;;;;;;;7.70;5.00;;;21.20;99.90;;;;;;5053365;28;20281;-64
2022/08/18 07:20:23;;;;;;;5.43;4.32;;;21.50;99.90;;;;;;5053551;28;20205;-63
2022/08/18 07:23:01;;;;;;;4.18;3.78;;;21.80;99.90;;;;;;5052696;28;20193;-64
2022/08/18 07:25:30;;;;;;;5.25;4.18;;;22.20;99.90;;;;;;5053088;28;20189;-64
2022/08/18 07:28:00;;;;;;;5.85;4.18;;;22.50;99.90;;;;;;5052955;28;20216;-64
2022/08/18 07:30:36;;;;;;;6.35;4.68;;;22.70;99.90;;;;;;5052288;28;20181;-61
2022/08/18 07:33:21;;;;;;;5.07;4.03;;;22.70;99.90;;;;;;5052915;28;20189;-61
2022/08/18 07:35:55;;;;;;;5.68;4.30;;;22.60;99.90;;;;;;5033171;28;20196;-62
2022/08/18 07:38:27;;;;;;;5.32;4.38;;;22.60;99.90;;;;;;5033357;28;20205;-63
2022/08/18 07:41:28;;;;;;;7.15;4.35;;;22.50;99.90;;;;;;5033268;28;20186;-61
2022/08/18 07:44:07;;;;;;;5.78;4.18;;;22.40;99.90;;;;;;5033224;28;20170;-63
2022/08/18 07:46:44;;;;;;;6.38;4.63;;;22.30;99.90;;;;;;5041573;28;20544;-62
2022/08/18 07:49:18;;;;;;;10.55;7.38;;;22.10;99.90;;;;;;5052781;28;20196;-63
2022/08/18 07:51:52;;;;;;;5.70;4.78;;;22.00;99.90;;;;;;5053006;28;20173;-62
2022/08/18 07:54:44;;;;;;;5.68;4.60;;;21.90;99.90;;;;;;5052901;28;20174;-62
2022/08/18 07:57:26;;;;;;;5.40;4.90;;;21.80;99.90;;;;;;5052529;28;20648;-65
2022/08/18 08:00:08;;;;;;;6.40;4.80;;;21.80;99.90;;;;;;5052594;28;20217;-65
2022/08/18 08:03:00;;;;;;;5.43;4.93;;;21.80;99.90;;;;;;5052190;28;20188;-65
2022/08/18 08:05:47;;;;;;;6.68;4.60;;;21.70;99.90;;;;;;5046470;28;20239;-65
2022/08/18 08:08:35;;;;;;;5.20;4.65;;;21.70;99.90;;;;;;5051532;28;20205;-65
2022/08/18 08:11:15;;;;;;;6.30;5.30;;;21.70;99.90;;;;;;5051858;28;20535;-65
2022/08/18 08:13:56;;;;;;;4.95;4.40;;;21.70;99.90;;;;;;5052135;28;20185;-65
2022/08/18 08:16:56;;;;;;;6.28;4.93;;;21.70;99.90;;;;;;5050226;28;20185;-64
2022/08/18 08:19:40;;;;;;;6.43;5.40;;;21.70;99.90;;;;;;5039672;28;20629;-64
2022/08/18 08:22:10;;;;;;;5.40;4.78;;;21.70;99.90;;;;;;5051941;28;20268;-65
2022/08/18 08:25:03;;;;;;;7.28;5.50;;;21.70;99.90;;;;;;5051862;28;20185;-64
2022/08/18 08:27:41;;;;;;;6.05;5.38;;;21.60;99.90;;;;;;5051734;28;20220;-64
2022/08/18 08:30:17;;;;;;;7.47;5.25;;;21.50;99.90;;;;;;5050454;28;20173;-64
2022/08/18 08:32:51;;;;;;;11.23;5.30;;;21.40;99.90;;;;;;5050949;28;20219;-65
2022/08/18 08:35:32;;;;;;;8.82;6.28;;;21.30;99.90;;;;;;5051930;28;20185;-64
2022/08/18 08:38:08;;;;;;;8.82;6.15;;;21.30;99.90;;;;;;5051894;28;20201;-64
2022/08/18 08:40:46;;;;;;;8.43;5.50;;;21.30;99.90;;;;;;5037962;28;20196;-64
2022/08/18 08:43:17;;;;;;;6.38;5.35;;;21.20;99.90;;;;;;5051875;28;20185;-64
2022/08/18 08:46:00;;;;;;;6.13;5.53;;;21.10;99.90;;;;;;5051180;28;20209;-64
2022/08/18 08:48:29;;;;;;;7.28;5.25;;;21.10;99.90;;;;;;5050281;28;20589;-64
2022/08/18 08:51:00;;;;;;;7.22;5.07;;;21.20;99.90;;;;;;5051600;28;20223;-64
2022/08/18 08:53:58;;;;;;;6.15;5.07;;;21.20;99.90;;;;;;5050714;28;20193;-64
2022/08/18 08:56:29;;;;;;;6.35;5.15;;;21.30;99.90;;;;;;5037292;28;20170;-64
2022/08/18 08:59:04;;;;;;;6.03;5.35;;;21.40;99.90;;;;;;5051258;28;20256;-64
2022/08/18 09:01:51;;;;;;;5.93;4.85;;;21.60;99.90;;;;;;5051166;28;20224;-64
2022/08/18 09:04:52;;;;;;;8.18;5.45;;;21.80;99.90;;;;;;5051106;28;20170;-65
2022/08/18 09:07:53;;;;;;;7.35;5.50;;;22.10;99.90;;;;;;5051751;28;20211;-63
2022/08/18 09:10:58;;;;;;;6.13;5.10;;;22.40;99.90;;;;;;5009694;28;20178;-64
2022/08/18 09:13:32;;;;;;;7.65;5.60;;;22.70;99.90;;;;;;5031933;28;20174;-64
2022/08/18 09:16:32;;;;;;;6.43;5.47;;;22.80;99.90;;;;;;5031785;28;20176;-64
2022/08/18 09:19:21;;;;;;;10.95;5.65;;;22.70;99.90;;;;;;5040071;28;20676;-64
2022/08/18 09:21:51;;;;;;;6.22;5.53;;;22.70;99.90;;;;;;5050274;28;20537;-64
2022/08/18 09:24:30;;;;;;;7.30;5.60;;;22.70;99.90;;;;;;5051557;28;20184;-64
2022/08/18 09:27:01;;;;;;;6.88;5.90;;;23.00;99.90;;;;;;5051234;28;20560;-64
2022/08/18 09:29:36;;;;;;;8.05;5.38;;;23.30;99.90;;;;;;5051367;28;20706;-64
2022/08/18 09:32:34;;;;;;;7.95;5.57;;;23.70;99.90;;;;;;5051240;28;20258;-64
2022/08/18 09:35:05;;;;;;;5.45;4.88;;;24.00;99.90;;;;;;5051547;28;20595;-64
2022/08/18 09:44:10;;;;;;;7.72;6.00;;;25.10;99.90;;;;;;5051457;28;20180;-64
2022/08/18 09:46:41;;;;;;;7.53;6.15;;;25.50;99.90;;;;;;5028101;28;20236;-65
2022/08/18 09:49:22;;;;;;;7.68;6.10;;;25.70;99.90;;;;;;5049241;28;20190;-65
2022/08/18 09:51:55;;;;;;;6.60;5.72;;;25.70;99.50;;;;;;5031305;28;20174;-64
2022/08/18 09:54:24;;;;;;;9.70;6.15;;;25.80;99.30;;;;;;5031215;28;20232;-64
2022/08/18 09:56:49;;;;;;;6.72;6.07;;;25.70;99.30;;;;;;5039017;28;20718;-64
2022/08/18 09:59:33;;;;;;;8.02;6.10;;;26.00;99.20;;;;;;5051207;28;20181;-64
2022/08/18 10:02:10;;;;;;;8.43;6.28;;;26.50;98.40;;;;;;5050269;28;20311;-64
2022/08/18 10:04:50;;;;;;;7.43;6.65;;;26.80;97.60;;;;;;5051184;28;20660;-64
2022/08/18 10:07:36;;;;;;;10.13;6.03;;;26.90;96.80;;;;;;5050775;28;20313;-65
2022/08/18 10:10:12;;;;;;;6.97;5.80;;;26.90;96.70;;;;;;5050763;28;20177;-65
2022/08/18 10:12:59;;;;;;;8.20;6.40;;;27.00;96.40;;;;;;5050887;28;20672;-64
2022/08/18 10:15:51;;;;;;;6.70;6.03;;;27.10;95.90;;;;;;5050922;28;20261;-65
2022/08/18 10:18:35;;;;;;;6.32;5.60;;;27.10;95.50;;;;;;5050757;28;20192;-65
2022/08/18 10:21:16;;;;;;;6.28;5.50;;;27.10;95.20;;;;;;5051075;28;20215;-65
2022/08/18 10:24:07;;;;;;;7.82;5.43;;;27.20;95.30;;;;;;5050434;28;20581;-65
2022/08/18 10:26:33;;;;;;;8.38;5.75;;;27.30;95.30;;;;;;5050567;28;20649;-64
2022/08/18 10:29:03;;;;;;;7.43;5.55;;;27.30;95.00;;;;;;5050927;28;20261;-64
2022/08/18 10:31:50;;;;;;;8.23;5.82;;;27.40;94.70;;;;;;5050260;28;20190;-65
2022/08/18 10:34:43;;;;;;;12.80;8.65;;;27.40;95.10;;;;;;5053342;28;20276;-64
2022/08/18 10:37:46;;;;;;;7.10;6.38;;;27.50;95.30;;;;;;5054335;28;20185;-64
2022/08/18 10:40:16;;;;;;;6.90;5.80;;;27.70;94.80;;;;;;5054337;28;20170;-64
2022/08/18 10:43:31;;;;;;;7.32;6.60;;;27.70;94.40;;;;;;5053984;28;20185;-64
2022/08/18 10:45:57;;;;;;;7.47;5.95;;;27.50;94.30;;;;;;5032008;28;20245;-64
2022/08/18 10:48:29;;;;;;;6.57;5.65;;;27.70;94.60;;;;;;5053296;28;20304;-64
2022/08/18 10:51:06;;;;;;;8.25;6.53;;;28.00;94.60;;;;;;5054092;28;20178;-64
2022/08/18 10:53:51;;;;;;;7.32;6.38;;;28.10;93.80;;;;;;5052575;28;20185;-63
2022/08/18 10:56:46;;;;;;;7.32;6.03;;;28.10;94.20;;;;;;5054029;28;20177;-62
2022/08/18 10:59:36;;;;;;;9.02;5.47;;;28.20;93.90;;;;;;5053415;28;20533;-63
2022/08/18 11:02:20;;;;;;;6.75;5.85;;;28.50;93.50;;;;;;5053102;28;20253;-63
2022/08/18 11:04:50;;;;;;;6.65;5.88;;;28.60;93.20;;;;;;5053298;28;20641;-64
2022/08/18 11:07:23;;;;;;;8.57;6.60;;;28.70;92.20;;;;;;5054539;28;20216;-64
2022/08/18 11:09:54;;;;;;;7.18;6.07;;;28.70;91.40;;;;;;5033949;28;20269;-64
2022/08/18 11:12:59;;;;;;;11.50;6.43;;;28.80;91.30;;;;;;5041959;28;20220;-64
2022/08/18 11:15:37;;;;;;;6.43;5.82;;;29.00;90.60;;;;;;5053749;28;20183;-64
2022/08/18 11:18:27;;;;;;;11.55;7.30;;;28.90;90.60;;;;;;5053470;28;20172;-64
2022/08/18 11:21:13;;;;;;;8.52;6.88;;;28.70;90.90;;;;;;5052138;28;20574;-64
2022/08/18 11:23:38;;;;;;;8.25;6.47;;;28.50;91.40;;;;;;5052840;28;20216;-64
2022/08/18 11:26:15;;;;;;;8.30;6.53;;;28.40;91.50;;;;;;5053118;28;20201;-64
2022/08/18 11:28:41;;;;;;;7.13;5.97;;;28.30;91.50;;;;;;5053269;28;20212;-64
2022/08/18 11:31:07;;;;;;;7.70;6.63;;;28.40;91.50;;;;;;5053690;28;20185;-64
2022/08/18 11:33:32;;;;;;;8.55;6.78;;;28.30;91.60;;;;;;5053504;28;20291;-64
2022/08/18 11:35:58;;;;;;;9.45;7.10;;;28.40;91.60;;;;;;5053318;28;20583;-64
2022/08/18 11:38:27;;;;;;;9.95;7.25;;;28.50;91.60;;;;;;5053324;28;20260;-64
2022/08/18 11:41:18;;;;;;;7.95;7.00;;;28.60;91.90;;;;;;5052597;28;20178;-63
2022/08/18 11:43:45;;;;;;;8.25;6.90;;;28.70;91.30;;;;;;5052737;28;20189;-63
2022/08/18 11:46:37;;;;;;;9.68;7.13;;;28.80;90.80;;;;;;5051883;28;20242;-64
2022/08/18 11:49:48;;;;;;;8.85;6.22;;;28.80;90.80;;;;;;5046759;28;20665;-64
2022/08/18 11:52:28;;;;;;;6.63;5.75;;;28.70;90.40;;;;;;5030768;28;20563;-64
2022/08/18 11:55:03;;;;;;;6.50;5.80;;;28.80;88.30;;;;;;5051626;28;20217;-64
2022/08/18 11:57:53;;;;;;;7.38;5.50;;;28.60;87.70;;;;;;5052793;28;20521;-64
2022/08/18 12:00:46;;;;;;;6.43;5.43;;;28.50;87.60;;;;;;5052600;28;20633;-63
2022/08/18 12:03:29;;;;;;;6.00;5.40;;;28.40;88.40;;;;;;5052778;28;20174;-64
2022/08/18 12:06:09;;;;;;;7.43;5.65;;;28.40;88.90;;;;;;5052870;28;20264;-64
2022/08/18 12:08:46;;;;;;;6.90;4.90;;;28.60;88.70;;;;;;5052706;28;20217;-64
2022/08/18 12:11:19;;;;;;;5.97;5.38;;;28.80;87.20;;;;;;5052718;28;20260;-64
2022/08/18 12:13:47;;;;;;;6.30;5.35;;;28.90;86.10;;;;;;5051183;28;20181;-64
2022/08/18 12:16:30;;;;;;;5.72;5.13;;;29.00;86.30;;;;;;5052102;28;20178;-64
2022/08/18 12:18:56;;;;;;;5.18;4.68;;;29.00;85.20;;;;;;5032449;28;20278;-64
2022/08/18 12:21:22;;;;;;;5.63;5.03;;;29.10;85.10;;;;;;5040315;28;20227;-64
2022/08/18 12:23:47;;;;;;;6.72;5.38;;;29.10;85.30;;;;;;5052316;28;20173;-64
2022/08/18 12:26:13;;;;;;;6.25;5.65;;;29.20;85.30;;;;;;5052431;28;20198;-64
2022/08/18 12:28:39;;;;;;;5.50;5.00;;;29.30;84.30;;;;;;5052315;28;20232;-64
2022/08/18 12:31:06;;;;;;;7.15;5.40;;;29.20;83.80;;;;;;5052236;28;20169;-63
2022/08/18 12:33:31;;;;;;;5.50;5.00;;;29.20;84.60;;;;;;5051278;28;20644;-65
2022/08/18 12:35:57;;;;;;;6.10;5.25;;;29.30;83.60;;;;;;5051924;28;20188;-64
2022/08/18 12:38:23;;;;;;;6.82;5.05;;;29.30;81.90;;;;;;5051941;28;20280;-64
2022/08/18 12:40:48;;;;;;;6.72;4.97;;;29.20;82.30;;;;;;5051749;28;20668;-64
2022/08/18 12:43:14;;;;;;;6.97;5.22;;;29.20;82.90;;;;;;5051656;28;20706;-64
2022/08/18 12:45:40;;;;;;;5.40;4.90;;;29.30;82.90;;;;;;5051766;28;20642;-64
2022/08/18 12:48:06;;;;;;;6.75;5.03;;;29.40;80.20;;;;;;5041802;28;20572;-64
2022/08/18 12:50:33;;;;;;;5.30;4.80;;;29.50;80.20;;;;;;5042023;28;20174;-64
2022/08/18 12:52:59;;;;;;;5.70;4.88;;;29.50;80.50;;;;;;5051910;28;20192;-64
2022/08/18 12:55:26;;;;;;;6.47;5.03;;;29.40;80.20;;;;;;5050917;28;20177;-64
2022/08/18 12:57:52;;;;;;;6.53;5.00;;;29.30;80.10;;;;;;5051638;28;20211;-64
2022/08/18 13:00:19;;;;;;;5.57;4.50;;;29.30;79.30;;;;;;5051389;28;20256;-64
2022/08/18 13:02:45;;;;;;;6.15;5.38;;;29.30;79.30;;;;;;5051520;28;20272;-64
2022/08/18 13:05:11;;;;;;;5.53;5.03;;;29.30;79.40;;;;;;5051464;28;20252;-61
2022/08/18 13:07:36;;;;;;;6.53;5.03;;;29.30;79.30;;;;;;5051316;28;20355;-63
2022/08/18 13:10:03;;;;;;;5.68;5.18;;;29.20;79.90;;;;;;5050295;28;20185;-59
2022/08/18 13:12:28;;;;;;;6.13;5.03;;;29.30;80.30;;;;;;5051495;28;20189;-63
2022/08/18 13:14:54;;;;;;;5.93;5.25;;;29.30;80.70;;;;;;5050961;28;20180;-63
2022/08/18 13:17:20;;;;;;;6.47;5.22;;;29.20;79.50;;;;;;5051527;28;20498;-63
2022/08/18 13:19:46;;;;;;;5.78;5.10;;;29.10;79.10;;;;;;5051096;28;20192;-63
2022/08/18 13:22:12;;;;;;;5.50;4.95;;;29.00;79.80;;;;;;5051386;28;20181;-59
2022/08/18 13:24:37;;;;;;;6.25;5.53;;;28.90;79.90;;;;;;5051237;28;20185;-60
2022/08/18 13:27:03;;;;;;;5.88;5.03;;;28.70;80.50;;;;;;5051120;28;20205;-63
2022/08/18 13:29:29;;;;;;;6.15;5.55;;;28.60;81.30;;;;;;5051397;28;20193;-62
2022/08/18 13:31:57;;;;;;;6.47;5.03;;;28.80;81.50;;;;;;5051306;28;20224;-59
2022/08/18 13:34:24;;;;;;;5.25;4.75;;;29.00;81.30;;;;;;5051173;28;20264;-62
2022/08/18 13:36:49;;;;;;;6.63;5.55;;;29.30;80.20;;;;;;5051171;28;20185;-62